sensor_id;sensor_type;location;lat;lon;timestamp;P1;durP1;ratioP1;P2;durP2;ratioP2
9801;SDS011;4940;50.900;4.672;2023-04-24T00:01:24;30.85;;;28.27;;
9801;SDS011;4940;50.900;4.672;2023-04-24T00:03:53;27.92;;;25.38;;
9801;SDS011;4940;50.900;4.672;2023-04-24T00:06:21;24.65;;;21.95;;
9801;SDS011;4940;50.900;4.672;2023-04-24T00:08:49;23.58;;;21.33;;
9801;SDS011;4940;50.900;4.672;2023-04-24T00:11:16;24.23;;;21.08;;
9801;SDS011;4940;50.900;4.672;2023-04-24T00:13:43;23.33;;;20.92;;
9801;SDS011;4940;50.900;4.672;2023-04-24T00:16:11;20.88;;;19.05;;
9801;SDS011;4940;50.900;4.672;2023-04-24T00:18:38;21.23;;;19.23;;
9801;SDS011;4940;50.900;4.672;2023-04-24T00:21:08;20.25;;;18.20;;
9801;SDS011;4940;50.900;4.672;2023-04-24T00:23:35;21.48;;;19.20;;
9801;SDS011;4940;50.900;4.672;2023-04-24T00:26:03;23.38;;;17.05;;
9801;SDS011;4940;50.900;4.672;2023-04-24T00:28:30;20.92;;;17.27;;
9801;SDS011;4940;50.900;4.672;2023-04-24T00:30:57;22.27;;;14.85;;
9801;SDS011;4940;50.900;4.672;2023-04-24T00:33:25;16.48;;;14.95;;
9801;SDS011;4940;50.900;4.672;2023-04-24T00:35:52;15.48;;;13.88;;
9801;SDS011;4940;50.900;4.672;2023-04-24T00:38:21;17.52;;;14.77;;
9801;SDS011;4940;50.900;4.672;2023-04-24T00:40:49;15.70;;;13.90;;
9801;SDS011;4940;50.900;4.672;2023-04-24T00:43:16;22.98;;;16.20;;
9801;SDS011;4940;50.900;4.672;2023-04-24T00:45:44;18.55;;;16.75;;
9801;SDS011;4940;50.900;4.672;2023-04-24T00:48:11;18.30;;;15.23;;
9801;SDS011;4940;50.900;4.672;2023-04-24T00:50:38;17.45;;;15.77;;
9801;SDS011;4940;50.900;4.672;2023-04-24T00:53:06;20.30;;;17.13;;
9801;SDS011;4940;50.900;4.672;2023-04-24T00:55:35;21.42;;;19.20;;
9801;SDS011;4940;50.900;4.672;2023-04-24T00:58:03;21.75;;;19.65;;
9801;SDS011;4940;50.900;4.672;2023-04-24T01:00:31;22.38;;;20.30;;
9801;SDS011;4940;50.900;4.672;2023-04-24T01:02:59;23.20;;;21.00;;
9801;SDS011;4940;50.900;4.672;2023-04-24T01:05:27;24.85;;;22.48;;
9801;SDS011;4940;50.900;4.672;2023-04-24T01:07:55;24.05;;;21.80;;
9801;SDS011;4940;50.900;4.672;2023-04-24T01:10:23;24.88;;;22.77;;
9801;SDS011;4940;50.900;4.672;2023-04-24T01:12:53;25.23;;;21.75;;
9801;SDS011;4940;50.900;4.672;2023-04-24T01:15:20;25.65;;;23.38;;
9801;SDS011;4940;50.900;4.672;2023-04-24T01:17:47;28.08;;;25.67;;
9801;SDS011;4940;50.900;4.672;2023-04-24T01:20:15;27.75;;;25.10;;
9801;SDS011;4940;50.900;4.672;2023-04-24T01:22:44;26.17;;;23.98;;
9801;SDS011;4940;50.900;4.672;2023-04-24T01:25:11;26.77;;;24.27;;
9801;SDS011;4940;50.900;4.672;2023-04-24T01:27:39;27.80;;;25.42;;
9801;SDS011;4940;50.900;4.672;2023-04-24T01:30:07;27.65;;;25.25;;
9801;SDS011;4940;50.900;4.672;2023-04-24T01:32:35;26.48;;;24.10;;
9801;SDS011;4940;50.900;4.672;2023-04-24T01:35:04;24.88;;;22.75;;
9801;SDS011;4940;50.900;4.672;2023-04-24T01:37:32;25.05;;;22.77;;
9801;SDS011;4940;50.900;4.672;2023-04-24T01:40:01;24.58;;;22.42;;
9801;SDS011;4940;50.900;4.672;2023-04-24T01:42:29;24.98;;;22.90;;
9801;SDS011;4940;50.900;4.672;2023-04-24T01:44:57;25.00;;;22.65;;
9801;SDS011;4940;50.900;4.672;2023-04-24T01:47:24;24.00;;;22.15;;
9801;SDS011;4940;50.900;4.672;2023-04-24T01:49:52;23.85;;;21.83;;
9801;SDS011;4940;50.900;4.672;2023-04-24T01:52:19;24.13;;;21.75;;
9801;SDS011;4940;50.900;4.672;2023-04-24T01:54:47;24.38;;;22.33;;
9801;SDS011;4940;50.900;4.672;2023-04-24T01:57:16;22.08;;;20.27;;
9801;SDS011;4940;50.900;4.672;2023-04-24T01:59:43;20.20;;;18.27;;
9801;SDS011;4940;50.900;4.672;2023-04-24T02:02:10;20.05;;;18.40;;
9801;SDS011;4940;50.900;4.672;2023-04-24T02:04:38;18.80;;;16.98;;
9801;SDS011;4940;50.900;4.672;2023-04-24T02:07:06;20.67;;;18.83;;
9801;SDS011;4940;50.900;4.672;2023-04-24T02:09:33;21.75;;;20.10;;
9801;SDS011;4940;50.900;4.672;2023-04-24T02:12:00;21.02;;;19.33;;
9801;SDS011;4940;50.900;4.672;2023-04-24T02:14:29;20.42;;;18.80;;
9801;SDS011;4940;50.900;4.672;2023-04-24T02:16:56;21.48;;;19.58;;
9801;SDS011;4940;50.900;4.672;2023-04-24T02:19:24;21.75;;;19.95;;
9801;SDS011;4940;50.900;4.672;2023-04-24T02:21:51;18.73;;;17.33;;
9801;SDS011;4940;50.900;4.672;2023-04-24T02:24:19;21.77;;;19.92;;
9801;SDS011;4940;50.900;4.672;2023-04-24T02:26:46;23.80;;;21.90;;
9801;SDS011;4940;50.900;4.672;2023-04-24T02:29:13;25.02;;;23.05;;
9801;SDS011;4940;50.900;4.672;2023-04-24T02:31:42;24.00;;;22.02;;
9801;SDS011;4940;50.900;4.672;2023-04-24T02:34:09;24.90;;;23.00;;
9801;SDS011;4940;50.900;4.672;2023-04-24T02:36:37;26.17;;;24.02;;
9801;SDS011;4940;50.900;4.672;2023-04-24T02:39:04;26.65;;;24.45;;
9801;SDS011;4940;50.900;4.672;2023-04-24T02:41:31;33.63;;;30.92;;
9801;SDS011;4940;50.900;4.672;2023-04-24T02:43:59;33.75;;;31.20;;
9801;SDS011;4940;50.900;4.672;2023-04-24T02:46:29;33.92;;;31.55;;
9801;SDS011;4940;50.900;4.672;2023-04-24T02:48:57;32.97;;;30.58;;
9801;SDS011;4940;50.900;4.672;2023-04-24T02:51:24;35.50;;;32.47;;
9801;SDS011;4940;50.900;4.672;2023-04-24T02:53:52;34.08;;;31.58;;
9801;SDS011;4940;50.900;4.672;2023-04-24T02:56:19;32.10;;;29.60;;
9801;SDS011;4940;50.900;4.672;2023-04-24T02:58:47;34.83;;;32.25;;
9801;SDS011;4940;50.900;4.672;2023-04-24T03:01:14;37.00;;;34.15;;
9801;SDS011;4940;50.900;4.672;2023-04-24T03:03:41;35.55;;;32.95;;
9801;SDS011;4940;50.900;4.672;2023-04-24T03:06:10;35.70;;;33.00;;
9801;SDS011;4940;50.900;4.672;2023-04-24T03:08:37;36.95;;;34.35;;
9801;SDS011;4940;50.900;4.672;2023-04-24T03:11:05;38.63;;;35.92;;
9801;SDS011;4940;50.900;4.672;2023-04-24T03:13:32;37.10;;;34.45;;
9801;SDS011;4940;50.900;4.672;2023-04-24T03:16:00;41.10;;;38.28;;
9801;SDS011;4940;50.900;4.672;2023-04-24T03:18:27;41.97;;;38.63;;
9801;SDS011;4940;50.900;4.672;2023-04-24T03:20:55;40.47;;;37.30;;
9801;SDS011;4940;50.900;4.672;2023-04-24T03:23:23;41.30;;;38.20;;
9801;SDS011;4940;50.900;4.672;2023-04-24T03:25:51;43.28;;;40.28;;
9801;SDS011;4940;50.900;4.672;2023-04-24T03:28:20;41.03;;;38.17;;
9801;SDS011;4940;50.900;4.672;2023-04-24T03:30:47;44.95;;;41.72;;
9801;SDS011;4940;50.900;4.672;2023-04-24T03:33:15;43.75;;;40.75;;
9801;SDS011;4940;50.900;4.672;2023-04-24T03:35:42;41.55;;;38.63;;
9801;SDS011;4940;50.900;4.672;2023-04-24T03:38:10;44.25;;;41.25;;
9801;SDS011;4940;50.900;4.672;2023-04-24T03:40:39;40.92;;;38.10;;
9801;SDS011;4940;50.900;4.672;2023-04-24T03:43:06;44.80;;;41.83;;
9801;SDS011;4940;50.900;4.672;2023-04-24T03:45:33;44.55;;;41.20;;
9801;SDS011;4940;50.900;4.672;2023-04-24T03:48:01;42.70;;;39.30;;
9801;SDS011;4940;50.900;4.672;2023-04-24T03:50:28;39.95;;;37.15;;
9801;SDS011;4940;50.900;4.672;2023-04-24T03:52:55;39.83;;;37.03;;
9801;SDS011;4940;50.900;4.672;2023-04-24T03:55:23;41.22;;;38.33;;
9801;SDS011;4940;50.900;4.672;2023-04-24T03:57:51;38.78;;;36.22;;
9801;SDS011;4940;50.900;4.672;2023-04-24T04:00:18;42.00;;;39.10;;
9801;SDS011;4940;50.900;4.672;2023-04-24T04:02:46;41.42;;;38.38;;
9801;SDS011;4940;50.900;4.672;2023-04-24T04:05:13;40.70;;;37.88;;
9801;SDS011;4940;50.900;4.672;2023-04-24T04:07:41;45.10;;;42.20;;
9801;SDS011;4940;50.900;4.672;2023-04-24T04:10:09;41.28;;;38.47;;
9801;SDS011;4940;50.900;4.672;2023-04-24T04:12:36;42.72;;;39.85;;
9801;SDS011;4940;50.900;4.672;2023-04-24T04:15:05;41.42;;;38.47;;
9801;SDS011;4940;50.900;4.672;2023-04-24T04:17:33;45.95;;;42.70;;
9801;SDS011;4940;50.900;4.672;2023-04-24T04:20:00;45.88;;;42.80;;
9801;SDS011;4940;50.900;4.672;2023-04-24T04:22:32;42.55;;;39.83;;
9801;SDS011;4940;50.900;4.672;2023-04-24T04:24:59;41.17;;;38.55;;
9801;SDS011;4940;50.900;4.672;2023-04-24T04:27:27;42.03;;;39.17;;
9801;SDS011;4940;50.900;4.672;2023-04-24T04:29:57;48.30;;;45.10;;
9801;SDS011;4940;50.900;4.672;2023-04-24T04:32:27;55.30;;;51.72;;
9801;SDS011;4940;50.900;4.672;2023-04-24T04:34:54;53.63;;;50.03;;
9801;SDS011;4940;50.900;4.672;2023-04-24T04:37:22;52.13;;;48.83;;
9801;SDS011;4940;50.900;4.672;2023-04-24T04:39:50;51.05;;;47.75;;
9801;SDS011;4940;50.900;4.672;2023-04-24T04:42:18;56.75;;;52.95;;
9801;SDS011;4940;50.900;4.672;2023-04-24T04:44:46;54.63;;;50.92;;
9801;SDS011;4940;50.900;4.672;2023-04-24T04:47:13;58.63;;;54.92;;
9801;SDS011;4940;50.900;4.672;2023-04-24T04:49:42;61.85;;;57.90;;
9801;SDS011;4940;50.900;4.672;2023-04-24T04:52:10;61.08;;;57.17;;
9801;SDS011;4940;50.900;4.672;2023-04-24T04:54:37;54.88;;;51.20;;
9801;SDS011;4940;50.900;4.672;2023-04-24T04:57:04;56.88;;;53.13;;
9801;SDS011;4940;50.900;4.672;2023-04-24T04:59:32;55.72;;;51.75;;
9801;SDS011;4940;50.900;4.672;2023-04-24T05:01:59;50.92;;;47.33;;
9801;SDS011;4940;50.900;4.672;2023-04-24T05:04:27;50.65;;;47.05;;
9801;SDS011;4940;50.900;4.672;2023-04-24T05:06:56;45.45;;;41.88;;
9801;SDS011;4940;50.900;4.672;2023-04-24T05:09:24;46.08;;;42.67;;
9801;SDS011;4940;50.900;4.672;2023-04-24T05:11:52;52.13;;;47.83;;
9801;SDS011;4940;50.900;4.672;2023-04-24T05:14:20;51.33;;;47.63;;
9801;SDS011;4940;50.900;4.672;2023-04-24T05:16:47;55.97;;;52.08;;
9801;SDS011;4940;50.900;4.672;2023-04-24T05:19:15;48.05;;;44.28;;
9801;SDS011;4940;50.900;4.672;2023-04-24T05:21:42;47.00;;;43.30;;
9801;SDS011;4940;50.900;4.672;2023-04-24T05:24:11;49.95;;;45.47;;
9801;SDS011;4940;50.900;4.672;2023-04-24T05:26:39;48.30;;;44.50;;
9801;SDS011;4940;50.900;4.672;2023-04-24T05:29:07;45.58;;;42.13;;
9801;SDS011;4940;50.900;4.672;2023-04-24T05:31:34;45.70;;;42.10;;
9801;SDS011;4940;50.900;4.672;2023-04-24T05:34:01;45.28;;;41.33;;
9801;SDS011;4940;50.900;4.672;2023-04-24T05:36:30;45.78;;;41.95;;
9801;SDS011;4940;50.900;4.672;2023-04-24T05:38:57;46.35;;;42.65;;
9801;SDS011;4940;50.900;4.672;2023-04-24T05:41:26;47.53;;;44.00;;
9801;SDS011;4940;50.900;4.672;2023-04-24T05:43:53;44.88;;;41.30;;
9801;SDS011;4940;50.900;4.672;2023-04-24T05:46:21;48.45;;;44.55;;
9801;SDS011;4940;50.900;4.672;2023-04-24T05:48:48;50.10;;;45.75;;
9801;SDS011;4940;50.900;4.672;2023-04-24T05:51:16;46.88;;;43.17;;
9801;SDS011;4940;50.900;4.672;2023-04-24T05:53:43;44.85;;;41.40;;
9801;SDS011;4940;50.900;4.672;2023-04-24T05:56:10;47.92;;;44.20;;
9801;SDS011;4940;50.900;4.672;2023-04-24T05:58:39;48.47;;;44.47;;
9801;SDS011;4940;50.900;4.672;2023-04-24T06:01:06;49.88;;;46.28;;
9801;SDS011;4940;50.900;4.672;2023-04-24T06:03:34;56.28;;;51.70;;
9801;SDS011;4940;50.900;4.672;2023-04-24T06:06:02;53.30;;;48.92;;
9801;SDS011;4940;50.900;4.672;2023-04-24T06:08:29;51.80;;;47.83;;
9801;SDS011;4940;50.900;4.672;2023-04-24T06:10:57;50.78;;;46.92;;
9801;SDS011;4940;50.900;4.672;2023-04-24T06:13:24;51.08;;;47.17;;
9801;SDS011;4940;50.900;4.672;2023-04-24T06:15:53;54.63;;;50.28;;
9801;SDS011;4940;50.900;4.672;2023-04-24T06:18:20;55.95;;;51.40;;
9801;SDS011;4940;50.900;4.672;2023-04-24T06:20:48;57.55;;;52.92;;
9801;SDS011;4940;50.900;4.672;2023-04-24T06:23:17;58.50;;;53.90;;
9801;SDS011;4940;50.900;4.672;2023-04-24T06:25:44;56.70;;;51.80;;
9801;SDS011;4940;50.900;4.672;2023-04-24T06:28:11;56.78;;;52.65;;
9801;SDS011;4940;50.900;4.672;2023-04-24T06:30:39;54.60;;;50.15;;
9801;SDS011;4940;50.900;4.672;2023-04-24T06:33:08;56.60;;;51.80;;
9801;SDS011;4940;50.900;4.672;2023-04-24T06:35:35;54.55;;;50.33;;
9801;SDS011;4940;50.900;4.672;2023-04-24T06:38:03;55.85;;;51.10;;
9801;SDS011;4940;50.900;4.672;2023-04-24T06:40:30;56.65;;;51.88;;
9801;SDS011;4940;50.900;4.672;2023-04-24T06:42:58;52.88;;;48.40;;
9801;SDS011;4940;50.900;4.672;2023-04-24T06:45:28;52.38;;;47.78;;
9801;SDS011;4940;50.900;4.672;2023-04-24T06:47:55;53.53;;;48.40;;
9801;SDS011;4940;50.900;4.672;2023-04-24T06:50:24;52.22;;;47.58;;
9801;SDS011;4940;50.900;4.672;2023-04-24T06:52:51;50.83;;;46.30;;
9801;SDS011;4940;50.900;4.672;2023-04-24T06:55:18;51.65;;;46.78;;
9801;SDS011;4940;50.900;4.672;2023-04-24T06:57:46;53.28;;;48.67;;
9801;SDS011;4940;50.900;4.672;2023-04-24T07:00:13;55.58;;;50.47;;
9801;SDS011;4940;50.900;4.672;2023-04-24T07:02:41;51.33;;;46.70;;
9801;SDS011;4940;50.900;4.672;2023-04-24T07:05:08;52.83;;;48.10;;
9801;SDS011;4940;50.900;4.672;2023-04-24T07:07:37;55.00;;;50.42;;
9801;SDS011;4940;50.900;4.672;2023-04-24T07:10:05;51.80;;;46.88;;
9801;SDS011;4940;50.900;4.672;2023-04-24T07:12:33;52.42;;;47.63;;
9801;SDS011;4940;50.900;4.672;2023-04-24T07:15:01;52.70;;;48.03;;
9801;SDS011;4940;50.900;4.672;2023-04-24T07:17:29;52.17;;;47.30;;
9801;SDS011;4940;50.900;4.672;2023-04-24T07:19:56;52.20;;;47.50;;
9801;SDS011;4940;50.900;4.672;2023-04-24T07:22:24;54.13;;;49.10;;
9801;SDS011;4940;50.900;4.672;2023-04-24T07:24:52;52.95;;;47.75;;
9801;SDS011;4940;50.900;4.672;2023-04-24T07:27:20;51.42;;;46.28;;
9801;SDS011;4940;50.900;4.672;2023-04-24T07:29:47;51.72;;;46.65;;
9801;SDS011;4940;50.900;4.672;2023-04-24T07:32:15;56.30;;;50.40;;
9801;SDS011;4940;50.900;4.672;2023-04-24T07:34:42;53.67;;;48.88;;
9801;SDS011;4940;50.900;4.672;2023-04-24T07:37:09;55.17;;;49.50;;
9801;SDS011;4940;50.900;4.672;2023-04-24T07:39:37;57.42;;;51.95;;
9801;SDS011;4940;50.900;4.672;2023-04-24T07:42:05;57.78;;;52.15;;
9801;SDS011;4940;50.900;4.672;2023-04-24T07:44:33;56.00;;;50.38;;
9801;SDS011;4940;50.900;4.672;2023-04-24T07:47:01;53.85;;;47.63;;
9801;SDS011;4940;50.900;4.672;2023-04-24T07:49:28;55.72;;;50.58;;
9801;SDS011;4940;50.900;4.672;2023-04-24T07:51:56;55.78;;;50.53;;
9801;SDS011;4940;50.900;4.672;2023-04-24T07:54:25;55.58;;;50.35;;
9801;SDS011;4940;50.900;4.672;2023-04-24T07:56:53;52.45;;;47.45;;
9801;SDS011;4940;50.900;4.672;2023-04-24T07:59:22;54.22;;;49.10;;
9801;SDS011;4940;50.900;4.672;2023-04-24T08:01:49;56.40;;;51.17;;
9801;SDS011;4940;50.900;4.672;2023-04-24T08:04:17;55.88;;;50.55;;
9801;SDS011;4940;50.900;4.672;2023-04-24T08:06:44;58.63;;;53.03;;
9801;SDS011;4940;50.900;4.672;2023-04-24T08:09:12;58.97;;;53.60;;
9801;SDS011;4940;50.900;4.672;2023-04-24T08:11:39;58.10;;;52.45;;
9801;SDS011;4940;50.900;4.672;2023-04-24T08:14:07;60.97;;;54.75;;
9801;SDS011;4940;50.900;4.672;2023-04-24T08:16:35;55.85;;;50.67;;
9801;SDS011;4940;50.900;4.672;2023-04-24T08:19:03;53.90;;;48.97;;
9801;SDS011;4940;50.900;4.672;2023-04-24T08:21:30;56.28;;;51.15;;
9801;SDS011;4940;50.900;4.672;2023-04-24T08:23:58;52.63;;;47.92;;
9801;SDS011;4940;50.900;4.672;2023-04-24T08:26:25;51.47;;;46.42;;
9801;SDS011;4940;50.900;4.672;2023-04-24T08:28:53;51.88;;;46.85;;
9801;SDS011;4940;50.900;4.672;2023-04-24T08:31:20;54.95;;;50.22;;
9801;SDS011;4940;50.900;4.672;2023-04-24T08:33:51;49.53;;;45.30;;
9801;SDS011;4940;50.900;4.672;2023-04-24T08:36:18;45.97;;;41.33;;
9801;SDS011;4940;50.900;4.672;2023-04-24T08:38:46;45.65;;;41.55;;
9801;SDS011;4940;50.900;4.672;2023-04-24T08:41:14;45.08;;;40.65;;
9801;SDS011;4940;50.900;4.672;2023-04-24T08:43:42;48.20;;;43.42;;
9801;SDS011;4940;50.900;4.672;2023-04-24T08:46:09;49.20;;;44.78;;
9801;SDS011;4940;50.900;4.672;2023-04-24T08:48:39;53.13;;;48.15;;
9801;SDS011;4940;50.900;4.672;2023-04-24T08:51:07;54.75;;;49.55;;
9801;SDS011;4940;50.900;4.672;2023-04-24T08:53:36;52.08;;;47.38;;
9801;SDS011;4940;50.900;4.672;2023-04-24T08:56:03;52.65;;;47.55;;
9801;SDS011;4940;50.900;4.672;2023-04-24T08:58:31;53.20;;;48.40;;
9801;SDS011;4940;50.900;4.672;2023-04-24T09:00:59;48.78;;;44.17;;
9801;SDS011;4940;50.900;4.672;2023-04-24T09:03:26;40.10;;;36.47;;
9801;SDS011;4940;50.900;4.672;2023-04-24T09:05:55;38.75;;;35.30;;
9801;SDS011;4940;50.900;4.672;2023-04-24T09:08:25;37.83;;;34.67;;
9801;SDS011;4940;50.900;4.672;2023-04-24T09:10:54;40.50;;;36.58;;
9801;SDS011;4940;50.900;4.672;2023-04-24T09:13:23;39.47;;;36.47;;
9801;SDS011;4940;50.900;4.672;2023-04-24T09:15:51;39.85;;;36.58;;
9801;SDS011;4940;50.900;4.672;2023-04-24T09:18:19;40.00;;;36.67;;
9801;SDS011;4940;50.900;4.672;2023-04-24T09:21:00;42.10;;;38.08;;
9801;SDS011;4940;50.900;4.672;2023-04-24T09:23:30;50.20;;;45.55;;
9801;SDS011;4940;50.900;4.672;2023-04-24T09:25:58;49.08;;;44.58;;
9801;SDS011;4940;50.900;4.672;2023-04-24T09:28:27;52.63;;;47.70;;
9801;SDS011;4940;50.900;4.672;2023-04-24T09:31:04;50.78;;;46.03;;
9801;SDS011;4940;50.900;4.672;2023-04-24T09:33:32;46.80;;;42.00;;
9801;SDS011;4940;50.900;4.672;2023-04-24T09:35:59;45.53;;;41.42;;
9801;SDS011;4940;50.900;4.672;2023-04-24T09:38:32;37.85;;;34.83;;
9801;SDS011;4940;50.900;4.672;2023-04-24T09:41:01;32.08;;;29.35;;
9801;SDS011;4940;50.900;4.672;2023-04-24T09:43:29;25.40;;;22.83;;
9801;SDS011;4940;50.900;4.672;2023-04-24T09:45:57;18.45;;;16.75;;
9801;SDS011;4940;50.900;4.672;2023-04-24T09:48:32;17.70;;;16.08;;
9801;SDS011;4940;50.900;4.672;2023-04-24T09:51:01;14.80;;;13.40;;
9801;SDS011;4940;50.900;4.672;2023-04-24T09:53:29;14.95;;;13.70;;
9801;SDS011;4940;50.900;4.672;2023-04-24T09:56:02;18.73;;;16.30;;
9801;SDS011;4940;50.900;4.672;2023-04-24T09:58:29;28.98;;;27.08;;
9801;SDS011;4940;50.900;4.672;2023-04-24T10:00:57;23.52;;;21.67;;
9801;SDS011;4940;50.900;4.672;2023-04-24T10:03:25;15.75;;;14.57;;
9801;SDS011;4940;50.900;4.672;2023-04-24T10:05:58;8.68;;;4.95;;
9801;SDS011;4940;50.900;4.672;2023-04-24T10:08:25;5.43;;;2.90;;
9801;SDS011;4940;50.900;4.672;2023-04-24T10:11:00;5.07;;;2.70;;
9801;SDS011;4940;50.900;4.672;2023-04-24T10:13:28;7.55;;;2.65;;
9801;SDS011;4940;50.900;4.672;2023-04-24T10:15:55;4.90;;;2.85;;
9801;SDS011;4940;50.900;4.672;2023-04-24T10:18:25;4.80;;;2.40;;
9801;SDS011;4940;50.900;4.672;2023-04-24T10:20:53;5.50;;;3.17;;
9801;SDS011;4940;50.900;4.672;2023-04-24T10:23:21;8.68;;;2.97;;
9801;SDS011;4940;50.900;4.672;2023-04-24T10:25:49;4.43;;;2.90;;
9801;SDS011;4940;50.900;4.672;2023-04-24T10:28:20;5.18;;;2.97;;
9801;SDS011;4940;50.900;4.672;2023-04-24T10:30:48;4.75;;;2.67;;
9801;SDS011;4940;50.900;4.672;2023-04-24T10:33:15;4.60;;;2.95;;
9801;SDS011;4940;50.900;4.672;2023-04-24T10:35:45;7.72;;;2.45;;
9801;SDS011;4940;50.900;4.672;2023-04-24T10:38:16;4.75;;;2.70;;
9801;SDS011;4940;50.900;4.672;2023-04-24T10:40:49;7.22;;;2.80;;
9801;SDS011;4940;50.900;4.672;2023-04-24T10:43:16;5.38;;;2.67;;
9801;SDS011;4940;50.900;4.672;2023-04-24T10:46:01;6.43;;;3.13;;
9801;SDS011;4940;50.900;4.672;2023-04-24T10:48:29;5.03;;;2.80;;
9801;SDS011;4940;50.900;4.672;2023-04-24T10:50:57;4.60;;;2.95;;
9801;SDS011;4940;50.900;4.672;2023-04-24T10:53:27;6.70;;;2.92;;
9801;SDS011;4940;50.900;4.672;2023-04-24T10:55:57;4.57;;;2.65;;
9801;SDS011;4940;50.900;4.672;2023-04-24T10:58:35;4.25;;;2.85;;
9801;SDS011;4940;50.900;4.672;2023-04-24T11:01:05;3.90;;;2.53;;
9801;SDS011;4940;50.900;4.672;2023-04-24T11:03:33;7.38;;;2.70;;
9801;SDS011;4940;50.900;4.672;2023-04-24T11:06:02;3.55;;;2.25;;
9801;SDS011;4940;50.900;4.672;2023-04-24T11:08:31;7.13;;;2.53;;
9801;SDS011;4940;50.900;4.672;2023-04-24T11:11:03;4.05;;;3.05;;
9801;SDS011;4940;50.900;4.672;2023-04-24T11:16:36;4.97;;;2.60;;
9801;SDS011;4940;50.900;4.672;2023-04-24T11:19:17;9.63;;;3.15;;
9801;SDS011;4940;50.900;4.672;2023-04-24T11:21:47;7.22;;;2.67;;
9801;SDS011;4940;50.900;4.672;2023-04-24T11:24:30;9.40;;;2.80;;
9801;SDS011;4940;50.900;4.672;2023-04-24T11:26:59;5.07;;;2.83;;
9801;SDS011;4940;50.900;4.672;2023-04-24T11:29:38;5.10;;;3.00;;
9801;SDS011;4940;50.900;4.672;2023-04-24T11:35:02;5.13;;;2.80;;
9801;SDS011;4940;50.900;4.672;2023-04-24T11:37:33;3.85;;;2.75;;
9801;SDS011;4940;50.900;4.672;2023-04-24T11:40:03;5.97;;;2.65;;
9801;SDS011;4940;50.900;4.672;2023-04-24T11:42:35;5.60;;;3.15;;
9801;SDS011;4940;50.900;4.672;2023-04-24T11:45:07;8.52;;;3.30;;
9801;SDS011;4940;50.900;4.672;2023-04-24T11:47:37;5.72;;;3.00;;
9801;SDS011;4940;50.900;4.672;2023-04-24T11:50:05;3.70;;;2.65;;
9801;SDS011;4940;50.900;4.672;2023-04-24T11:52:37;6.45;;;2.90;;
9801;SDS011;4940;50.900;4.672;2023-04-24T11:55:06;8.18;;;3.00;;
9801;SDS011;4940;50.900;4.672;2023-04-24T11:57:35;5.32;;;2.95;;
9801;SDS011;4940;50.900;4.672;2023-04-24T12:00:02;4.97;;;2.95;;
9801;SDS011;4940;50.900;4.672;2023-04-24T12:02:31;5.38;;;2.88;;
9801;SDS011;4940;50.900;4.672;2023-04-24T12:04:59;5.57;;;2.88;;
9801;SDS011;4940;50.900;4.672;2023-04-24T12:07:27;2.90;;;2.42;;
9801;SDS011;4940;50.900;4.672;2023-04-24T12:09:55;5.38;;;2.95;;
9801;SDS011;4940;50.900;4.672;2023-04-24T12:12:24;4.32;;;3.20;;
9801;SDS011;4940;50.900;4.672;2023-04-24T12:14:52;6.03;;;3.13;;
9801;SDS011;4940;50.900;4.672;2023-04-24T12:17:24;4.25;;;2.67;;
9801;SDS011;4940;50.900;4.672;2023-04-24T12:19:56;5.68;;;3.28;;
9801;SDS011;4940;50.900;4.672;2023-04-24T12:22:26;5.03;;;3.03;;
9801;SDS011;4940;50.900;4.672;2023-04-24T12:24:59;5.18;;;2.88;;
9801;SDS011;4940;50.900;4.672;2023-04-24T12:27:29;6.78;;;2.95;;
9801;SDS011;4940;50.900;4.672;2023-04-24T12:29:57;6.20;;;3.30;;
9801;SDS011;4940;50.900;4.672;2023-04-24T12:32:25;7.30;;;2.88;;
9801;SDS011;4940;50.900;4.672;2023-04-24T12:34:53;5.78;;;3.28;;
9801;SDS011;4940;50.900;4.672;2023-04-24T12:37:22;7.07;;;3.42;;
9801;SDS011;4940;50.900;4.672;2023-04-24T12:40:05;9.07;;;3.40;;
9801;SDS011;4940;50.900;4.672;2023-04-24T12:42:34;6.00;;;3.00;;
9801;SDS011;4940;50.900;4.672;2023-04-24T12:45:02;5.50;;;2.65;;
9801;SDS011;4940;50.900;4.672;2023-04-24T12:47:31;5.40;;;2.70;;
9801;SDS011;4940;50.900;4.672;2023-04-24T12:49:59;3.85;;;3.00;;
9801;SDS011;4940;50.900;4.672;2023-04-24T12:52:26;4.38;;;2.78;;
9801;SDS011;4940;50.900;4.672;2023-04-24T12:54:54;5.57;;;3.17;;
9801;SDS011;4940;50.900;4.672;2023-04-24T12:57:24;5.38;;;2.75;;
9801;SDS011;4940;50.900;4.672;2023-04-24T12:59:53;6.43;;;3.13;;
9801;SDS011;4940;50.900;4.672;2023-04-24T13:02:21;5.22;;;3.03;;
9801;SDS011;4940;50.900;4.672;2023-04-24T13:04:48;5.20;;;3.05;;
9801;SDS011;4940;50.900;4.672;2023-04-24T13:07:16;4.63;;;2.75;;
9801;SDS011;4940;50.900;4.672;2023-04-24T13:09:43;5.43;;;2.67;;
9801;SDS011;4940;50.900;4.672;2023-04-24T13:12:11;4.63;;;2.70;;
9801;SDS011;4940;50.900;4.672;2023-04-24T13:14:40;5.45;;;2.72;;
9801;SDS011;4940;50.900;4.672;2023-04-24T13:17:07;5.45;;;3.00;;
9801;SDS011;4940;50.900;4.672;2023-04-24T13:19:36;5.93;;;2.90;;
9801;SDS011;4940;50.900;4.672;2023-04-24T13:22:04;5.75;;;2.70;;
9801;SDS011;4940;50.900;4.672;2023-04-24T13:24:32;5.75;;;3.08;;
9801;SDS011;4940;50.900;4.672;2023-04-24T13:26:59;5.40;;;2.55;;
9801;SDS011;4940;50.900;4.672;2023-04-24T13:29:27;9.52;;;2.70;;
9801;SDS011;4940;50.900;4.672;2023-04-24T13:31:56;3.50;;;2.55;;
9801;SDS011;4940;50.900;4.672;2023-04-24T13:34:24;5.95;;;2.47;;
9801;SDS011;4940;50.900;4.672;2023-04-24T13:36:52;4.38;;;2.70;;
9801;SDS011;4940;50.900;4.672;2023-04-24T13:39:21;3.92;;;2.40;;
9801;SDS011;4940;50.900;4.672;2023-04-24T13:41:48;4.18;;;2.60;;
9801;SDS011;4940;50.900;4.672;2023-04-24T13:44:16;3.55;;;2.33;;
9801;SDS011;4940;50.900;4.672;2023-04-24T13:46:44;5.80;;;2.55;;
9801;SDS011;4940;50.900;4.672;2023-04-24T13:49:14;4.10;;;2.65;;
9801;SDS011;4940;50.900;4.672;2023-04-24T13:51:42;3.10;;;2.33;;
9801;SDS011;4940;50.900;4.672;2023-04-24T13:54:09;6.05;;;2.55;;
9801;SDS011;4940;50.900;4.672;2023-04-24T13:56:37;3.50;;;2.50;;
9801;SDS011;4940;50.900;4.672;2023-04-24T13:59:05;6.07;;;2.35;;
9801;SDS011;4940;50.900;4.672;2023-04-24T14:01:32;5.88;;;2.22;;
9801;SDS011;4940;50.900;4.672;2023-04-24T14:04:00;5.60;;;2.38;;
9801;SDS011;4940;50.900;4.672;2023-04-24T14:06:29;4.78;;;2.20;;
9801;SDS011;4940;50.900;4.672;2023-04-24T14:08:56;3.97;;;2.10;;
9801;SDS011;4940;50.900;4.672;2023-04-24T14:11:24;4.95;;;2.33;;
9801;SDS011;4940;50.900;4.672;2023-04-24T14:13:51;3.75;;;2.20;;
9801;SDS011;4940;50.900;4.672;2023-04-24T14:16:18;2.67;;;1.48;;
9801;SDS011;4940;50.900;4.672;2023-04-24T14:18:46;4.05;;;2.30;;
9801;SDS011;4940;50.900;4.672;2023-04-24T14:21:13;4.32;;;1.75;;
9801;SDS011;4940;50.900;4.672;2023-04-24T14:23:42;5.80;;;2.10;;
9801;SDS011;4940;50.900;4.672;2023-04-24T14:26:10;2.40;;;1.73;;
9801;SDS011;4940;50.900;4.672;2023-04-24T14:28:38;4.60;;;1.58;;
9801;SDS011;4940;50.900;4.672;2023-04-24T14:31:05;2.03;;;1.70;;
9801;SDS011;4940;50.900;4.672;2023-04-24T14:33:33;3.30;;;1.60;;
9801;SDS011;4940;50.900;4.672;2023-04-24T14:36:00;5.70;;;2.10;;
9801;SDS011;4940;50.900;4.672;2023-04-24T14:38:30;2.42;;;1.45;;
9801;SDS011;4940;50.900;4.672;2023-04-24T14:40:59;2.10;;;1.60;;
9801;SDS011;4940;50.900;4.672;2023-04-24T14:43:26;2.88;;;1.83;;
9801;SDS011;4940;50.900;4.672;2023-04-24T14:45:54;1.90;;;1.40;;
9801;SDS011;4940;50.900;4.672;2023-04-24T14:48:21;2.88;;;1.73;;
9801;SDS011;4940;50.900;4.672;2023-04-24T14:50:48;2.70;;;1.83;;
9801;SDS011;4940;50.900;4.672;2023-04-24T14:53:16;3.08;;;2.20;;
9801;SDS011;4940;50.900;4.672;2023-04-24T14:55:44;4.53;;;2.17;;
9801;SDS011;4940;50.900;4.672;2023-04-24T14:58:12;6.45;;;2.30;;
9801;SDS011;4940;50.900;4.672;2023-04-24T15:00:40;3.72;;;2.28;;
9801;SDS011;4940;50.900;4.672;2023-04-24T15:03:08;3.63;;;2.38;;
9801;SDS011;4940;50.900;4.672;2023-04-24T15:05:35;2.45;;;1.95;;
9801;SDS011;4940;50.900;4.672;2023-04-24T15:08:02;4.50;;;2.40;;
9801;SDS011;4940;50.900;4.672;2023-04-24T15:10:30;4.22;;;2.22;;